Time;durP1;ratioP1;P1;durP2;ratioP2;P2;SDS_P1;SDS_P2;PMS_P1;PMS_P2;Temp;Humidity;BMP_temperature;BMP_pressure;BME280_temperature;BME280_humidity;BME280_pressure;Samples;Min_cycle;Max_cycle;Signal;HPM_P1;HPM_P2
2022/07/18 07:24:49;;;;;;;14.48;7.70;;;33.50;99.90;;;;;;5922427;23;21039;-92
2022/07/18 07:27:16;;;;;;;8.45;6.68;;;33.40;99.90;;;;;;4964277;28;20383;-91
2022/07/18 07:29:42;;;;;;;10.77;8.15;;;33.40;99.90;;;;;;4964203;28;20027;-91
2022/07/18 07:32:09;;;;;;;10.50;7.95;;;33.70;99.90;;;;;;4965750;28;20038;-91
2022/07/18 07:34:36;;;;;;;10.30;8.00;;;33.80;99.90;;;;;;4964426;28;20038;-91
2022/07/18 07:37:02;;;;;;;10.57;8.30;;;33.60;99.90;;;;;;4960858;28;20031;-91
2022/07/18 07:39:28;;;;;;;9.27;8.48;;;33.30;99.90;;;;;;4944975;28;20411;-92
2022/07/18 07:41:54;;;;;;;14.27;8.13;;;33.80;99.90;;;;;;4944745;28;20128;-93
2022/07/18 07:44:21;;;;;;;9.73;8.82;;;33.50;99.90;;;;;;4944875;28;20118;-92
2022/07/18 07:46:48;;;;;;;9.85;8.15;;;33.50;99.90;;;;;;4945077;28;20034;-92
2022/07/18 07:49:14;;;;;;;10.68;8.70;;;33.60;99.90;;;;;;4944983;28;20051;-91
2022/07/18 07:51:41;;;;;;;10.25;9.25;;;33.70;99.90;;;;;;4943759;28;20055;-91
2022/07/18 07:54:10;;;;;;;10.23;9.30;;;33.70;99.90;;;;;;4944564;28;20031;-91
2022/07/18 07:56:36;;;;;;;10.45;9.25;;;33.60;99.90;;;;;;4944525;28;20062;-91
2022/07/18 07:59:03;;;;;;;11.27;9.77;;;34.20;99.90;;;;;;4944438;28;20031;-92
2022/07/18 08:01:29;;;;;;;10.90;9.90;;;34.50;99.90;;;;;;4944323;28;20031;-92
2022/07/18 08:03:55;;;;;;;11.23;9.98;;;34.40;99.90;;;;;;4944536;28;20030;-92
2022/07/18 08:06:22;;;;;;;10.90;9.73;;;34.40;99.90;;;;;;4944612;28;20078;-91
2022/07/18 08:08:48;;;;;;;11.13;10.15;;;34.60;99.90;;;;;;4944368;28;20022;-91
2022/07/18 08:11:15;;;;;;;12.52;10.45;;;34.50;99.90;;;;;;4944213;28;20026;-91
2022/07/18 08:13:42;;;;;;;10.95;9.57;;;34.50;99.90;;;;;;4944246;28;20027;-92
2022/07/18 08:16:12;;;;;;;11.02;9.43;;;34.70;99.90;;;;;;4944445;28;20105;-91
2022/07/18 08:18:38;;;;;;;11.38;9.77;;;34.60;99.90;;;;;;4944204;28;20159;-92
2022/07/18 08:21:04;;;;;;;10.30;9.43;;;34.20;99.90;;;;;;4944098;28;20122;-91
2022/07/18 08:23:31;;;;;;;11.15;8.95;;;34.10;99.90;;;;;;4944938;28;20039;-91
2022/07/18 08:26:01;;;;;;;11.60;9.85;;;34.00;99.90;;;;;;4940614;29;20071;-91
2022/07/18 08:28:27;;;;;;;9.90;9.20;;;34.00;99.90;;;;;;4957213;29;20046;-92
2022/07/18 08:30:54;;;;;;;10.50;9.50;;;34.30;99.90;;;;;;4956821;29;20130;-92
2022/07/18 08:33:20;;;;;;;11.45;9.77;;;34.40;99.90;;;;;;4941639;29;20034;-91
2022/07/18 08:35:47;;;;;;;9.93;8.90;;;34.50;99.90;;;;;;4956858;29;20023;-91
2022/07/18 08:38:13;;;;;;;11.90;9.38;;;34.70;99.90;;;;;;4943305;29;20031;-90
2022/07/18 08:40:40;;;;;;;9.85;8.88;;;34.90;99.90;;;;;;4961590;29;20110;-90
2022/07/18 08:43:06;;;;;;;10.18;9.10;;;34.70;99.90;;;;;;4945144;29;20023;-91
2022/07/18 08:45:33;;;;;;;10.25;9.32;;;34.70;99.90;;;;;;4958161;29;20070;-92
2022/07/18 08:48:00;;;;;;;11.80;9.25;;;34.70;99.90;;;;;;4958910;29;20031;-91
2022/07/18 08:50:26;;;;;;;12.00;10.60;;;34.70;99.90;;;;;;4944574;29;20035;-93
2022/07/18 08:52:55;;;;;;;11.48;10.48;;;35.10;99.90;;;;;;4957032;29;20023;-92
2022/07/18 08:55:22;;;;;;;12.02;10.40;;;34.80;99.90;;;;;;4940611;29;20031;-93
2022/07/18 08:57:48;;;;;;;12.77;10.23;;;34.70;99.90;;;;;;4956380;29;20031;-92
2022/07/18 09:00:16;;;;;;;10.30;9.60;;;34.60;99.90;;;;;;4956316;29;20373;-93
2022/07/18 09:02:43;;;;;;;11.07;10.10;;;34.40;99.90;;;;;;4939943;29;20031;-93
2022/07/18 09:05:20;;;;;;;13.23;10.82;;;34.60;99.90;;;;;;4955960;29;20035;-92
2022/07/18 09:08:24;;;;;;;10.45;9.60;;;34.30;99.90;;;;;;4956220;29;20027;-92
2022/07/18 09:10:51;;;;;;;11.40;10.40;;;34.10;99.90;;;;;;4956313;28;20091;-92
2022/07/18 09:13:21;;;;;;;13.23;10.98;;;34.60;99.90;;;;;;4956298;29;20038;-91
2022/07/18 09:16:17;;;;;;;12.27;10.93;;;34.80;99.90;;;;;;4941694;29;20054;-92
2022/07/18 09:18:47;;;;;;;11.05;10.15;;;34.90;99.90;;;;;;4882911;29;20055;-92
2022/07/18 09:21:18;;;;;;;11.02;9.95;;;34.60;99.90;;;;;;4883091;29;20033;-92
2022/07/18 09:23:54;;;;;;;11.98;9.85;;;34.20;99.90;;;;;;4867166;29;20094;-91
2022/07/18 09:26:56;;;;;;;14.13;10.77;;;34.00;99.90;;;;;;4863701;29;20056;-92
2022/07/18 09:29:23;;;;;;;11.27;10.38;;;34.00;99.90;;;;;;4842369;29;20088;-92
2022/07/18 09:31:51;;;;;;;10.65;9.70;;;34.30;99.90;;;;;;4827550;29;20041;-92
2022/07/18 09:34:38;;;;;;;13.05;10.05;;;34.80;99.90;;;;;;4827278;29;20519;-92
2022/07/18 09:37:12;;;;;;;12.38;10.00;;;34.70;99.90;;;;;;4827153;29;20053;-93
2022/07/18 09:39:39;;;;;;;12.60;11.02;;;34.10;99.90;;;;;;4827113;29;20054;-93
2022/07/18 09:42:16;;;;;;;12.20;10.57;;;34.00;99.90;;;;;;4826876;29;20030;-94
2022/07/18 09:45:19;;;;;;;11.82;10.63;;;34.00;99.90;;;;;;4827051;29;20058;-92
2022/07/18 09:47:53;;;;;;;11.35;10.02;;;33.90;99.90;;;;;;4827215;29;20050;-93
2022/07/18 09:50:25;;;;;;;13.00;10.50;;;33.70;99.90;;;;;;4827013;29;20030;-93
2022/07/18 09:53:04;;;;;;;11.48;10.40;;;34.00;99.90;;;;;;4827316;29;20141;-93
2022/07/18 09:55:31;;;;;;;11.35;10.45;;;33.80;99.90;;;;;;4865000;29;20043;-93
2022/07/18 09:58:08;;;;;;;11.77;10.88;;;33.90;99.90;;;;;;4867557;29;20040;-93
2022/07/18 10:00:38;;;;;;;11.30;10.32;;;33.60;99.90;;;;;;4883860;29;20068;-93
2022/07/18 10:03:07;;;;;;;13.20;11.07;;;33.60;99.90;;;;;;4868922;29;20024;-93
2022/07/18 10:05:36;;;;;;;11.75;10.52;;;33.80;99.90;;;;;;4912968;29;20044;-92
2022/07/18 10:08:06;;;;;;;11.90;10.88;;;33.40;99.90;;;;;;4936486;29;20027;-92
2022/07/18 10:10:38;;;;;;;12.43;11.10;;;33.40;99.90;;;;;;4952581;29;20386;-91
2022/07/18 10:13:06;;;;;;;11.10;10.10;;;33.50;99.90;;;;;;4951383;29;20039;-91
2022/07/18 10:15:39;;;;;;;11.30;10.10;;;33.30;99.90;;;;;;4935714;29;20079;-92
2022/07/18 10:18:12;;;;;;;11.27;10.43;;;33.50;99.90;;;;;;4951565;29;20048;-92
2022/07/18 10:20:59;;;;;;;11.35;10.55;;;33.40;99.90;;;;;;4901345;29;20031;-93
2022/07/18 10:23:39;;;;;;;11.77;10.77;;;33.50;99.90;;;;;;4901849;29;20032;-91
2022/07/18 10:26:24;;;;;;;12.10;10.98;;;33.80;99.90;;;;;;4931188;29;20047;-93
2022/07/18 10:28:58;;;;;;;11.82;10.82;;;33.50;99.90;;;;;;4923122;29;20027;-91
2022/07/18 10:32:04;;;;;;;12.85;10.95;;;33.50;99.90;;;;;;4938882;29;20118;-92
2022/07/18 10:34:37;;;;;;;12.45;11.45;;;33.80;99.90;;;;;;4918165;29;20031;-92
2022/07/18 10:37:06;;;;;;;12.73;11.50;;;34.00;99.90;;;;;;4922906;29;20412;-91
2022/07/18 10:39:39;;;;;;;12.55;11.52;;;33.80;99.90;;;;;;4922851;29;20035;-92
2022/07/18 10:42:13;;;;;;;11.80;10.93;;;33.90;99.90;;;;;;4923830;29;20035;-90
2022/07/18 10:44:40;;;;;;;;;;;33.90;99.90;;;;;;4923501;29;20174;-91
2022/07/18 10:47:17;;;;;;;11.43;10.55;;;33.90;99.90;;;;;;4922934;29;19913;-90
2022/07/18 10:49:49;;;;;;;13.57;12.40;;;33.80;99.90;;;;;;4922558;29;20023;-87
2022/07/18 10:52:25;;;;;;;13.45;12.15;;;34.00;99.90;;;;;;4938200;29;20049;-84
2022/07/18 10:55:16;;;;;;;13.35;11.95;;;33.70;99.90;;;;;;4938142;29;20031;-87
2022/07/18 10:58:06;;;;;;;13.20;12.00;;;33.90;99.90;;;;;;4922661;29;20035;-88
2022/07/18 11:00:38;;;;;;;12.93;11.70;;;33.70;99.90;;;;;;4938560;29;20039;-87
2022/07/18 11:03:08;;;;;;;12.25;11.45;;;33.80;99.90;;;;;;4922749;29;20126;-89
2022/07/18 11:05:49;;;;;;;12.82;11.70;;;34.00;99.90;;;;;;4922719;29;20115;-86
2022/07/18 11:08:18;;;;;;;12.90;11.95;;;34.00;99.90;;;;;;4922713;29;20032;-92
2022/07/18 11:10:46;;;;;;;13.45;12.15;;;34.10;99.90;;;;;;4923285;29;20054;-91
2022/07/18 11:13:25;;;;;;;13.00;12.00;;;33.70;99.90;;;;;;4939137;29;20034;-91
2022/07/18 11:16:07;;;;;;;13.50;12.32;;;33.60;99.90;;;;;;4923240;29;20035;-91
2022/07/18 11:18:54;;;;;;;13.07;11.90;;;33.90;99.90;;;;;;4938887;29;20444;-92
2022/07/18 11:21:32;;;;;;;13.23;12.25;;;34.00;99.90;;;;;;4922956;29;20068;-93
2022/07/18 11:24:12;;;;;;;12.98;12.02;;;34.00;99.90;;;;;;4923006;29;20099;-92
2022/07/18 11:26:48;;;;;;;12.80;11.80;;;33.90;99.90;;;;;;4941732;28;20129;-91
2022/07/18 11:29:20;;;;;;;13.05;12.20;;;34.00;99.90;;;;;;4961176;28;20034;-93
2022/07/18 11:32:24;;;;;;;13.77;12.68;;;34.20;99.90;;;;;;4961290;28;20031;-91
2022/07/18 11:34:51;;;;;;;12.55;11.27;;;34.30;99.90;;;;;;4945779;28;20054;-93
2022/07/18 11:37:18;;;;;;;12.73;11.80;;;34.00;99.90;;;;;;4960830;28;20042;-92
2022/07/18 11:39:45;;;;;;;13.10;12.02;;;33.60;99.90;;;;;;4960823;28;20042;-93
2022/07/18 11:42:12;;;;;;;12.95;12.05;;;33.80;99.90;;;;;;4960810;28;20106;-92
2022/07/18 11:45:17;;;;;;;13.65;12.50;;;33.90;99.90;;;;;;4961544;28;20023;-92
2022/07/18 11:47:52;;;;;;;12.80;11.95;;;33.70;99.90;;;;;;4944928;28;20031;-92
2022/07/18 11:50:35;;;;;;;13.70;12.70;;;33.90;99.90;;;;;;4960969;28;20031;-93
2022/07/18 11:53:01;;;;;;;13.55;12.38;;;34.00;99.90;;;;;;4961788;28;20023;-92
2022/07/18 11:55:40;;;;;;;13.32;12.52;;;34.00;99.90;;;;;;4960921;28;20027;-92
2022/07/18 11:58:12;;;;;;;12.75;11.50;;;33.90;99.90;;;;;;4960599;28;20038;-91
2022/07/18 12:00:40;;;;;;;12.15;11.10;;;33.90;99.90;;;;;;4960587;28;20484;-92
2022/07/18 12:03:12;;;;;;;11.80;11.02;;;33.90;99.90;;;;;;4960558;28;20023;-91
2022/07/18 12:05:52;;;;;;;12.40;11.55;;;33.80;99.90;;;;;;4960312;28;20030;-91
2022/07/18 12:08:32;;;;;;;12.63;11.55;;;34.00;99.90;;;;;;4960511;28;20042;-91
2022/07/18 12:11:19;;;;;;;12.27;11.50;;;34.20;99.90;;;;;;4960419;28;20034;-91
2022/07/18 12:14:23;;;;;;;13.68;12.27;;;34.10;99.90;;;;;;4960053;28;20094;-92
2022/07/18 12:16:59;;;;;;;13.32;12.23;;;33.90;99.90;;;;;;4944268;28;20038;-92
2022/07/18 12:29:09;;;;;;;13.77;12.65;;;33.70;99.90;;;;;;5836475;23;20051;-94
2022/07/18 12:31:52;;;;;;;17.02;13.80;;;33.90;99.90;;;;;;4951193;28;20041;-94
2022/07/18 12:34:19;;;;;;;14.13;13.18;;;34.30;99.90;;;;;;4953513;28;20035;-94
2022/07/18 12:37:26;;;;;;;15.18;13.85;;;34.10;99.90;;;;;;4948407;28;20029;-93
2022/07/18 12:40:17;;;;;;;13.93;13.13;;;34.10;99.90;;;;;;4947505;28;20042;-95
2022/07/18 12:42:44;;;;;;;14.00;12.90;;;33.90;99.90;;;;;;4946294;28;20389;-94
2022/07/18 12:45:13;;;;;;;14.00;12.90;;;33.90;99.90;;;;;;4947471;28;20496;-92
2022/07/18 12:47:40;;;;;;;14.75;13.50;;;33.60;99.90;;;;;;4954532;28;20054;-94
2022/07/18 12:50:42;;;;;;;15.15;13.98;;;33.50;99.80;;;;;;4947343;28;20043;-94
2022/07/18 12:53:09;;;;;;;14.98;13.85;;;33.40;99.90;;;;;;4946104;28;20384;-94
2022/07/18 12:55:51;;;;;;;15.30;14.13;;;33.40;99.90;;;;;;4950858;28;20059;-95
2022/07/18 12:58:27;;;;;;;17.15;15.85;;;33.40;99.90;;;;;;4951744;28;20535;-93
2022/07/18 13:00:56;;;;;;;18.42;15.18;;;33.40;99.90;;;;;;4968695;28;20063;-93
2022/07/18 13:03:46;;;;;;;;;;;;;;;;;;;;;
2022/07/18 13:06:17;;;;;;;15.77;14.48;;;33.30;99.90;;;;;;4965691;28;20055;-93
2022/07/18 13:08:47;;;;;;;15.25;14.10;;;33.50;99.90;;;;;;4947135;28;20058;-93
2022/07/18 13:11:20;;;;;;;15.48;14.27;;;33.80;99.90;;;;;;4949076;28;20038;-92
2022/07/18 13:13:50;;;;;;;18.52;17.17;;;33.70;99.90;;;;;;4950621;28;20047;-93
2022/07/18 13:16:17;;;;;;;17.40;16.00;;;33.50;99.90;;;;;;4954730;28;20031;-94
2022/07/18 13:18:48;;;;;;;15.30;13.90;;;33.40;99.90;;;;;;4951626;28;20054;-94
2022/07/18 13:21:16;;;;;;;24.27;22.10;;;33.70;99.90;;;;;;4954838;28;20046;-94
2022/07/18 13:23:43;;;;;;;17.33;15.98;;;33.90;99.90;;;;;;4945532;28;20039;-95
2022/07/18 13:26:10;;;;;;;14.07;13.07;;;33.80;99.90;;;;;;4945869;28;20030;-92
2022/07/18 13:28:49;;;;;;;14.13;13.13;;;33.30;99.90;;;;;;4951127;28;20037;-93
2022/07/18 13:31:17;;;;;;;14.88;13.77;;;33.20;99.90;;;;;;4947056;29;20079;-92
2022/07/18 13:33:50;;;;;;;14.73;13.52;;;33.20;99.90;;;;;;4955135;23;20044;-95
2022/07/18 13:36:20;;;;;;;14.32;13.32;;;33.10;99.90;;;;;;4945578;29;20059;-94
2022/07/18 13:39:07;;;;;;;14.75;13.60;;;33.20;99.90;;;;;;4943781;29;20044;-95
2022/07/18 13:41:37;;;;;;;18.38;16.05;;;33.20;99.90;;;;;;4914662;29;20052;-95
2022/07/18 13:44:10;;;;;;;14.82;13.65;;;33.40;99.90;;;;;;4927427;29;20055;-95
2022/07/18 13:46:46;;;;;;;14.90;13.52;;;33.30;99.90;;;;;;4927112;29;20064;-95
2022/07/18 13:52:23;;;;;;;14.60;13.38;;;33.50;99.90;;;;;;4963870;23;20047;-95
2022/07/18 13:55:34;;;;;;;14.48;13.30;;;33.60;99.90;;;;;;4952176;29;20548;-94
2022/07/18 13:58:06;;;;;;;14.35;13.25;;;33.50;99.90;;;;;;4852707;29;20108;-95
2022/07/18 14:00:49;;;;;;;13.75;12.80;;;33.20;99.90;;;;;;4857492;29;20029;-96
2022/07/18 14:03:32;;;;;;;14.02;12.90;;;33.10;99.90;;;;;;4837227;29;20045;-93
